KLPC/LPC METAR and TAF weather

Enter ICAO airport designator
Station Type Date Time Source
KLPC METAR 2019/04/18 21:56 UTC NOAA

KLPC 182156Z AUTO 26010KT 10SM CLR 21/13 A3009 RMK AO2 SLP191 T02110128


Station Type Date Time Source
KLPC Decoded METAR 2019/04/18 21:56 UTC NOAA

Lompoc, Lompoc Airport, CA, United States (KLPC) 34-40N 120-28W
Apr 18, 2019 - 05:56 PM EDT / 2019.04.18 2156 UTC
Wind: from the W (260 degrees) at 12 MPH (10 KT):0
Visibility: 10 mile(s):0
Sky conditions: clear
Temperature: 70.0 F (21.1 C)
Dew Point: 55.0 F (12.8 C)
Relative Humidity: 59%
Pressure (altimeter): 30.09 in. Hg (1018 hPa)
ob: KLPC 182156Z AUTO 26010KT 10SM CLR 21/13 A3009 RMK AO2 SLP191 T02110128
cycle: 22

Station Type Date Time Source
KLPC TAF UTC NOAA

Error!

Example: see airport list